sensor_id;sensor_type;location;lat;lon;timestamp;P1;durP1;ratioP1;P2;durP2;ratioP2
20734;SDS011;10528;52.124;5.196;2022-09-09T00:13:11;2.97;;;1.10;;
20734;SDS011;10528;52.124;5.196;2022-09-09T00:15:56;2.38;;;1.50;;
20734;SDS011;10528;52.124;5.196;2022-09-09T00:18:52;3.15;;;1.30;;
20734;SDS011;10528;52.124;5.196;2022-09-09T00:21:53;3.42;;;1.45;;
20734;SDS011;10528;52.124;5.196;2022-09-09T00:27:16;5.13;;;1.95;;
20734;SDS011;10528;52.124;5.196;2022-09-09T00:32:53;3.95;;;1.55;;
20734;SDS011;10528;52.124;5.196;2022-09-09T00:38:10;2.67;;;1.58;;
20734;SDS011;10528;52.124;5.196;2022-09-09T00:40:48;4.30;;;1.70;;
20734;SDS011;10528;52.124;5.196;2022-09-09T00:43:28;4.43;;;2.25;;
20734;SDS011;10528;52.124;5.196;2022-09-09T00:46:10;2.88;;;1.60;;
20734;SDS011;10528;52.124;5.196;2022-09-09T00:49:15;2.92;;;1.48;;
20734;SDS011;10528;52.124;5.196;2022-09-09T00:52:21;5.40;;;2.22;;
20734;SDS011;10528;52.124;5.196;2022-09-09T00:57:59;2.72;;;1.77;;
20734;SDS011;10528;52.124;5.196;2022-09-09T01:00:27;2.97;;;1.88;;
20734;SDS011;10528;52.124;5.196;2022-09-09T01:08:52;5.78;;;2.05;;
20734;SDS011;10528;52.124;5.196;2022-09-09T01:11:50;3.83;;;1.90;;
20734;SDS011;10528;52.124;5.196;2022-09-09T01:17:48;5.25;;;2.30;;
20734;SDS011;10528;52.124;5.196;2022-09-09T01:28:52;3.72;;;2.03;;
20734;SDS011;10528;52.124;5.196;2022-09-09T01:31:30;3.10;;;2.20;;
20734;SDS011;10528;52.124;5.196;2022-09-09T01:34:08;5.00;;;2.30;;
20734;SDS011;10528;52.124;5.196;2022-09-09T01:36:46;5.20;;;2.10;;
20734;SDS011;10528;52.124;5.196;2022-09-09T01:39:39;3.63;;;2.22;;
20734;SDS011;10528;52.124;5.196;2022-09-09T01:42:12;3.13;;;1.80;;
20734;SDS011;10528;52.124;5.196;2022-09-09T01:44:42;3.53;;;2.00;;
20734;SDS011;10528;52.124;5.196;2022-09-09T01:47:09;5.20;;;2.20;;
20734;SDS011;10528;52.124;5.196;2022-09-09T01:49:53;4.00;;;1.80;;
20734;SDS011;10528;52.124;5.196;2022-09-09T01:52:24;4.47;;;2.50;;
20734;SDS011;10528;52.124;5.196;2022-09-09T01:54:51;5.45;;;2.13;;
20734;SDS011;10528;52.124;5.196;2022-09-09T01:57:26;5.78;;;2.00;;
20734;SDS011;10528;52.124;5.196;2022-09-09T02:02:44;5.28;;;2.53;;
20734;SDS011;10528;52.124;5.196;2022-09-09T02:05:35;3.22;;;2.20;;
20734;SDS011;10528;52.124;5.196;2022-09-09T02:08:19;5.40;;;2.80;;
20734;SDS011;10528;52.124;5.196;2022-09-09T02:11:18;4.65;;;2.65;;
20734;SDS011;10528;52.124;5.196;2022-09-09T02:13:57;3.72;;;2.28;;
20734;SDS011;10528;52.124;5.196;2022-09-09T02:16:42;3.78;;;2.00;;
20734;SDS011;10528;52.124;5.196;2022-09-09T02:19:23;3.97;;;2.40;;
20734;SDS011;10528;52.124;5.196;2022-09-09T02:22:04;4.95;;;2.67;;
20734;SDS011;10528;52.124;5.196;2022-09-09T02:24:35;7.25;;;2.80;;
20734;SDS011;10528;52.124;5.196;2022-09-09T02:27:17;4.90;;;2.22;;
20734;SDS011;10528;52.124;5.196;2022-09-09T02:29:46;4.43;;;2.75;;
20734;SDS011;10528;52.124;5.196;2022-09-09T02:32:22;4.13;;;2.72;;
20734;SDS011;10528;52.124;5.196;2022-09-09T02:34:58;5.50;;;3.28;;
20734;SDS011;10528;52.124;5.196;2022-09-09T02:37:37;4.82;;;2.88;;
20734;SDS011;10528;52.124;5.196;2022-09-09T02:40:09;6.28;;;3.20;;
20734;SDS011;10528;52.124;5.196;2022-09-09T02:42:42;5.72;;;2.70;;
20734;SDS011;10528;52.124;5.196;2022-09-09T02:45:16;4.97;;;2.85;;
20734;SDS011;10528;52.124;5.196;2022-09-09T02:48:00;5.50;;;2.83;;
20734;SDS011;10528;52.124;5.196;2022-09-09T02:53:42;5.13;;;2.88;;
20734;SDS011;10528;52.124;5.196;2022-09-09T02:56:18;4.05;;;2.60;;
20734;SDS011;10528;52.124;5.196;2022-09-09T02:58:54;3.38;;;2.45;;
20734;SDS011;10528;52.124;5.196;2022-09-09T03:01:22;3.72;;;2.22;;
20734;SDS011;10528;52.124;5.196;2022-09-09T03:03:49;3.97;;;2.70;;
20734;SDS011;10528;52.124;5.196;2022-09-09T03:06:16;5.80;;;2.35;;
20734;SDS011;10528;52.124;5.196;2022-09-09T03:08:48;5.65;;;2.58;;
20734;SDS011;10528;52.124;5.196;2022-09-09T03:11:21;6.15;;;3.13;;
20734;SDS011;10528;52.124;5.196;2022-09-09T03:13:48;6.03;;;2.85;;
20734;SDS011;10528;52.124;5.196;2022-09-09T03:16:15;5.90;;;2.72;;
20734;SDS011;10528;52.124;5.196;2022-09-09T03:18:46;5.97;;;2.67;;
20734;SDS011;10528;52.124;5.196;2022-09-09T03:21:13;4.22;;;2.92;;
20734;SDS011;10528;52.124;5.196;2022-09-09T03:23:40;4.80;;;2.95;;
20734;SDS011;10528;52.124;5.196;2022-09-09T03:26:07;4.35;;;2.80;;
20734;SDS011;10528;52.124;5.196;2022-09-09T03:28:41;4.65;;;2.72;;
20734;SDS011;10528;52.124;5.196;2022-09-09T03:31:09;4.20;;;2.70;;
20734;SDS011;10528;52.124;5.196;2022-09-09T03:33:39;4.85;;;3.00;;
20734;SDS011;10528;52.124;5.196;2022-09-09T03:36:10;5.40;;;2.85;;
20734;SDS011;10528;52.124;5.196;2022-09-09T03:38:37;3.40;;;2.53;;
20734;SDS011;10528;52.124;5.196;2022-09-09T03:41:04;3.35;;;2.60;;
20734;SDS011;10528;52.124;5.196;2022-09-09T03:43:32;5.90;;;3.10;;
20734;SDS011;10528;52.124;5.196;2022-09-09T03:45:59;5.65;;;3.13;;
20734;SDS011;10528;52.124;5.196;2022-09-09T03:48:28;4.55;;;3.05;;
20734;SDS011;10528;52.124;5.196;2022-09-09T03:50:55;10.02;;;3.35;;
20734;SDS011;10528;52.124;5.196;2022-09-09T03:53:24;7.03;;;2.80;;
20734;SDS011;10528;52.124;5.196;2022-09-09T03:55:53;5.72;;;2.95;;
20734;SDS011;10528;52.124;5.196;2022-09-09T03:58:24;5.28;;;3.10;;
20734;SDS011;10528;52.124;5.196;2022-09-09T04:00:57;5.05;;;3.05;;
20734;SDS011;10528;52.124;5.196;2022-09-09T04:03:36;4.13;;;2.85;;
20734;SDS011;10528;52.124;5.196;2022-09-09T04:06:03;5.05;;;2.97;;
20734;SDS011;10528;52.124;5.196;2022-09-09T04:08:33;6.97;;;3.03;;
20734;SDS011;10528;52.124;5.196;2022-09-09T04:11:01;5.57;;;2.88;;
20734;SDS011;10528;52.124;5.196;2022-09-09T04:13:31;6.57;;;3.25;;
20734;SDS011;10528;52.124;5.196;2022-09-09T04:16:01;4.10;;;2.38;;
20734;SDS011;10528;52.124;5.196;2022-09-09T04:18:31;5.80;;;2.45;;
20734;SDS011;10528;52.124;5.196;2022-09-09T04:20:59;6.57;;;3.25;;
20734;SDS011;10528;52.124;5.196;2022-09-09T04:23:29;5.82;;;3.25;;
20734;SDS011;10528;52.124;5.196;2022-09-09T04:25:57;4.10;;;2.70;;
20734;SDS011;10528;52.124;5.196;2022-09-09T04:28:27;5.10;;;2.90;;
20734;SDS011;10528;52.124;5.196;2022-09-09T04:31:03;4.53;;;3.35;;
20734;SDS011;10528;52.124;5.196;2022-09-09T04:33:37;4.43;;;3.20;;
20734;SDS011;10528;52.124;5.196;2022-09-09T04:36:07;9.63;;;2.67;;
20734;SDS011;10528;52.124;5.196;2022-09-09T04:38:34;3.35;;;2.60;;
20734;SDS011;10528;52.124;5.196;2022-09-09T04:41:03;4.53;;;2.55;;
20734;SDS011;10528;52.124;5.196;2022-09-09T04:43:32;4.25;;;2.70;;
20734;SDS011;10528;52.124;5.196;2022-09-09T04:46:01;5.53;;;2.65;;
20734;SDS011;10528;52.124;5.196;2022-09-09T04:48:29;5.82;;;2.58;;
20734;SDS011;10528;52.124;5.196;2022-09-09T04:50:59;5.30;;;2.80;;
20734;SDS011;10528;52.124;5.196;2022-09-09T04:53:31;4.53;;;2.83;;
20734;SDS011;10528;52.124;5.196;2022-09-09T04:56:07;4.25;;;2.72;;
20734;SDS011;10528;52.124;5.196;2022-09-09T04:58:41;4.85;;;2.70;;
20734;SDS011;10528;52.124;5.196;2022-09-09T05:01:14;6.47;;;2.90;;
20734;SDS011;10528;52.124;5.196;2022-09-09T05:03:45;6.60;;;2.47;;
20734;SDS011;10528;52.124;5.196;2022-09-09T05:06:17;5.25;;;2.45;;
20734;SDS011;10528;52.124;5.196;2022-09-09T05:08:49;6.20;;;2.80;;
20734;SDS011;10528;52.124;5.196;2022-09-09T05:11:22;4.38;;;2.47;;
20734;SDS011;10528;52.124;5.196;2022-09-09T05:13:58;4.25;;;2.90;;
20734;SDS011;10528;52.124;5.196;2022-09-09T05:16:26;7.25;;;3.03;;
20734;SDS011;10528;52.124;5.196;2022-09-09T05:18:54;4.93;;;2.25;;
20734;SDS011;10528;52.124;5.196;2022-09-09T05:21:21;5.30;;;2.45;;
20734;SDS011;10528;52.124;5.196;2022-09-09T05:23:51;5.82;;;2.80;;
20734;SDS011;10528;52.124;5.196;2022-09-09T05:26:19;4.90;;;2.63;;
20734;SDS011;10528;52.124;5.196;2022-09-09T05:28:50;5.22;;;2.35;;
20734;SDS011;10528;52.124;5.196;2022-09-09T05:31:17;5.75;;;2.70;;
20734;SDS011;10528;52.124;5.196;2022-09-09T05:33:49;6.35;;;2.30;;
20734;SDS011;10528;52.124;5.196;2022-09-09T05:36:16;5.55;;;2.70;;
20734;SDS011;10528;52.124;5.196;2022-09-09T05:38:49;6.80;;;2.28;;
20734;SDS011;10528;52.124;5.196;2022-09-09T05:41:19;8.45;;;2.55;;
20734;SDS011;10528;52.124;5.196;2022-09-09T05:43:46;4.65;;;2.30;;
20734;SDS011;10528;52.124;5.196;2022-09-09T05:46:22;6.43;;;2.50;;
20734;SDS011;10528;52.124;5.196;2022-09-09T05:48:52;11.60;;;2.78;;
20734;SDS011;10528;52.124;5.196;2022-09-09T05:51:26;5.97;;;2.08;;
20734;SDS011;10528;52.124;5.196;2022-09-09T05:53:57;3.70;;;2.40;;
20734;SDS011;10528;52.124;5.196;2022-09-09T05:56:30;3.28;;;2.38;;
20734;SDS011;10528;52.124;5.196;2022-09-09T05:58:59;8.23;;;3.13;;
20734;SDS011;10528;52.124;5.196;2022-09-09T06:01:31;5.45;;;2.20;;
20734;SDS011;10528;52.124;5.196;2022-09-09T06:04:01;8.13;;;2.10;;
20734;SDS011;10528;52.124;5.196;2022-09-09T06:06:31;6.15;;;2.50;;
20734;SDS011;10528;52.124;5.196;2022-09-09T06:09:15;4.93;;;2.30;;
20734;SDS011;10528;52.124;5.196;2022-09-09T06:11:42;8.27;;;2.97;;
20734;SDS011;10528;52.124;5.196;2022-09-09T06:14:10;7.07;;;2.25;;
20734;SDS011;10528;52.124;5.196;2022-09-09T06:16:38;6.22;;;2.28;;
20734;SDS011;10528;52.124;5.196;2022-09-09T06:19:13;7.88;;;2.70;;
20734;SDS011;10528;52.124;5.196;2022-09-09T06:21:40;5.65;;;2.10;;
20734;SDS011;10528;52.124;5.196;2022-09-09T06:24:09;5.50;;;2.42;;
20734;SDS011;10528;52.124;5.196;2022-09-09T06:26:40;5.78;;;2.33;;
20734;SDS011;10528;52.124;5.196;2022-09-09T06:29:09;7.50;;;2.30;;
20734;SDS011;10528;52.124;5.196;2022-09-09T06:31:38;5.78;;;2.03;;
20734;SDS011;10528;52.124;5.196;2022-09-09T06:34:12;7.68;;;2.00;;
20734;SDS011;10528;52.124;5.196;2022-09-09T06:36:43;4.72;;;1.95;;
20734;SDS011;10528;52.124;5.196;2022-09-09T06:39:12;7.10;;;2.17;;
20734;SDS011;10528;52.124;5.196;2022-09-09T06:41:41;5.45;;;2.22;;
20734;SDS011;10528;52.124;5.196;2022-09-09T06:44:26;5.00;;;2.15;;
20734;SDS011;10528;52.124;5.196;2022-09-09T06:46:59;5.80;;;1.75;;
20734;SDS011;10528;52.124;5.196;2022-09-09T06:49:26;6.57;;;2.20;;
20734;SDS011;10528;52.124;5.196;2022-09-09T06:51:53;8.48;;;2.10;;
20734;SDS011;10528;52.124;5.196;2022-09-09T06:54:20;11.02;;;2.30;;
20734;SDS011;10528;52.124;5.196;2022-09-09T06:56:49;6.90;;;1.60;;
20734;SDS011;10528;52.124;5.196;2022-09-09T06:59:21;10.00;;;2.25;;
20734;SDS011;10528;52.124;5.196;2022-09-09T07:01:48;7.18;;;2.08;;
20734;SDS011;10528;52.124;5.196;2022-09-09T07:04:21;9.45;;;1.85;;
20734;SDS011;10528;52.124;5.196;2022-09-09T07:06:48;4.65;;;1.60;;
20734;SDS011;10528;52.124;5.196;2022-09-09T07:09:20;4.65;;;1.50;;
20734;SDS011;10528;52.124;5.196;2022-09-09T07:11:50;6.00;;;1.65;;
20734;SDS011;10528;52.124;5.196;2022-09-09T07:14:20;7.97;;;1.88;;
20734;SDS011;10528;52.124;5.196;2022-09-09T07:16:54;6.20;;;1.50;;
20734;SDS011;10528;52.124;5.196;2022-09-09T07:19:25;8.10;;;2.30;;
20734;SDS011;10528;52.124;5.196;2022-09-09T07:21:53;8.50;;;2.25;;
20734;SDS011;10528;52.124;5.196;2022-09-09T07:24:22;8.02;;;2.17;;
20734;SDS011;10528;52.124;5.196;2022-09-09T07:26:50;7.78;;;1.52;;
20734;SDS011;10528;52.124;5.196;2022-09-09T07:29:18;8.32;;;1.70;;
20734;SDS011;10528;52.124;5.196;2022-09-09T07:31:47;5.85;;;2.05;;
20734;SDS011;10528;52.124;5.196;2022-09-09T07:34:19;5.00;;;1.80;;
20734;SDS011;10528;52.124;5.196;2022-09-09T07:36:47;6.18;;;2.03;;
20734;SDS011;10528;52.124;5.196;2022-09-09T07:39:15;7.10;;;1.50;;
20734;SDS011;10528;52.124;5.196;2022-09-09T07:41:48;7.90;;;1.70;;
20734;SDS011;10528;52.124;5.196;2022-09-09T07:44:19;7.65;;;1.98;;
20734;SDS011;10528;52.124;5.196;2022-09-09T07:46:54;8.20;;;2.00;;
20734;SDS011;10528;52.124;5.196;2022-09-09T07:49:27;6.50;;;1.60;;
20734;SDS011;10528;52.124;5.196;2022-09-09T07:51:59;5.72;;;1.80;;
20734;SDS011;10528;52.124;5.196;2022-09-09T07:54:27;7.00;;;1.92;;
20734;SDS011;10528;52.124;5.196;2022-09-09T07:56:54;5.25;;;1.60;;
20734;SDS011;10528;52.124;5.196;2022-09-09T07:59:24;12.55;;;2.00;;
20734;SDS011;10528;52.124;5.196;2022-09-09T08:01:53;6.20;;;1.63;;
20734;SDS011;10528;52.124;5.196;2022-09-09T08:04:23;5.53;;;1.45;;
20734;SDS011;10528;52.124;5.196;2022-09-09T08:06:54;7.75;;;1.77;;
20734;SDS011;10528;52.124;5.196;2022-09-09T08:09:25;8.00;;;2.17;;
20734;SDS011;10528;52.124;5.196;2022-09-09T08:12:06;6.45;;;1.65;;
20734;SDS011;10528;52.124;5.196;2022-09-09T08:14:35;6.57;;;2.03;;
20734;SDS011;10528;52.124;5.196;2022-09-09T08:17:01;4.60;;;1.70;;
20734;SDS011;10528;52.124;5.196;2022-09-09T08:19:30;7.97;;;2.08;;
20734;SDS011;10528;52.124;5.196;2022-09-09T08:22:00;7.10;;;1.90;;
20734;SDS011;10528;52.124;5.196;2022-09-09T08:24:30;6.63;;;1.60;;
20734;SDS011;10528;52.124;5.196;2022-09-09T08:26:57;7.85;;;1.90;;
20734;SDS011;10528;52.124;5.196;2022-09-09T08:29:25;8.02;;;1.45;;
20734;SDS011;10528;52.124;5.196;2022-09-09T08:31:53;8.63;;;1.70;;
20734;SDS011;10528;52.124;5.196;2022-09-09T08:34:24;4.75;;;1.30;;
20734;SDS011;10528;52.124;5.196;2022-09-09T08:36:53;6.03;;;1.50;;
20734;SDS011;10528;52.124;5.196;2022-09-09T08:39:26;5.60;;;1.55;;
20734;SDS011;10528;52.124;5.196;2022-09-09T08:41:59;6.20;;;1.50;;
20734;SDS011;10528;52.124;5.196;2022-09-09T08:44:42;5.25;;;1.40;;
20734;SDS011;10528;52.124;5.196;2022-09-09T08:50:36;7.20;;;1.27;;
20734;SDS011;10528;52.124;5.196;2022-09-09T08:55:54;6.72;;;1.73;;
20734;SDS011;10528;52.124;5.196;2022-09-09T08:58:50;10.95;;;1.65;;
20734;SDS011;10528;52.124;5.196;2022-09-09T09:04:38;6.20;;;1.83;;
20734;SDS011;10528;52.124;5.196;2022-09-09T09:13:15;5.82;;;1.25;;
20734;SDS011;10528;52.124;5.196;2022-09-09T09:15:59;11.57;;;1.88;;
20734;SDS011;10528;52.124;5.196;2022-09-09T09:18:40;7.35;;;1.38;;
20734;SDS011;10528;52.124;5.196;2022-09-09T09:21:19;6.75;;;2.22;;
20734;SDS011;10528;52.124;5.196;2022-09-09T09:24:09;5.22;;;1.35;;
20734;SDS011;10528;52.124;5.196;2022-09-09T09:26:48;5.63;;;1.35;;
20734;SDS011;10528;52.124;5.196;2022-09-09T09:29:17;8.82;;;1.58;;
20734;SDS011;10528;52.124;5.196;2022-09-09T09:31:52;7.10;;;1.70;;
20734;SDS011;10528;52.124;5.196;2022-09-09T09:34:25;10.52;;;1.67;;
20734;SDS011;10528;52.124;5.196;2022-09-09T09:36:58;7.65;;;1.40;;
20734;SDS011;10528;52.124;5.196;2022-09-09T09:39:32;6.28;;;1.38;;
20734;SDS011;10528;52.124;5.196;2022-09-09T09:42:26;5.68;;;1.40;;
20734;SDS011;10528;52.124;5.196;2022-09-09T09:44:55;7.45;;;1.70;;
20734;SDS011;10528;52.124;5.196;2022-09-09T09:47:22;8.23;;;2.03;;
20734;SDS011;10528;52.124;5.196;2022-09-09T09:50:17;6.90;;;1.63;;
20734;SDS011;10528;52.124;5.196;2022-09-09T09:52:55;8.10;;;1.92;;
20734;SDS011;10528;52.124;5.196;2022-09-09T09:55:33;3.67;;;1.35;;
20734;SDS011;10528;52.124;5.196;2022-09-09T09:58:06;7.45;;;1.70;;
20734;SDS011;10528;52.124;5.196;2022-09-09T10:00:48;7.63;;;1.80;;
20734;SDS011;10528;52.124;5.196;2022-09-09T10:03:22;7.20;;;1.75;;
20734;SDS011;10528;52.124;5.196;2022-09-09T10:05:53;6.72;;;1.58;;
20734;SDS011;10528;52.124;5.196;2022-09-09T10:08:23;5.65;;;1.60;;
20734;SDS011;10528;52.124;5.196;2022-09-09T10:11:12;6.30;;;1.80;;
20734;SDS011;10528;52.124;5.196;2022-09-09T10:16:47;7.07;;;1.83;;
20734;SDS011;10528;52.124;5.196;2022-09-09T10:19:40;5.70;;;2.08;;
20734;SDS011;10528;52.124;5.196;2022-09-09T10:22:37;9.15;;;2.25;;
20734;SDS011;10528;52.124;5.196;2022-09-09T10:40:43;7.03;;;1.83;;
20734;SDS011;10528;52.124;5.196;2022-09-09T10:55:18;7.47;;;1.65;;
20734;SDS011;10528;52.124;5.196;2022-09-09T10:57:55;5.68;;;1.63;;
20734;SDS011;10528;52.124;5.196;2022-09-09T11:00:30;8.15;;;1.60;;
20734;SDS011;10528;52.124;5.196;2022-09-09T11:03:23;4.53;;;1.45;;
20734;SDS011;10528;52.124;5.196;2022-09-09T11:05:57;5.75;;;1.70;;
20734;SDS011;10528;52.124;5.196;2022-09-09T11:08:31;6.47;;;1.83;;
20734;SDS011;10528;52.124;5.196;2022-09-09T11:11:04;7.07;;;1.90;;
20734;SDS011;10528;52.124;5.196;2022-09-09T11:16:38;5.43;;;1.85;;
20734;SDS011;10528;52.124;5.196;2022-09-09T11:19:30;4.78;;;1.80;;
20734;SDS011;10528;52.124;5.196;2022-09-09T11:24:47;8.55;;;1.80;;
20734;SDS011;10528;52.124;5.196;2022-09-09T11:33:32;6.65;;;1.88;;
20734;SDS011;10528;52.124;5.196;2022-09-09T11:44:38;5.50;;;1.42;;
20734;SDS011;10528;52.124;5.196;2022-09-09T11:47:29;5.38;;;1.40;;
20734;SDS011;10528;52.124;5.196;2022-09-09T11:50:08;5.65;;;1.48;;
20734;SDS011;10528;52.124;5.196;2022-09-09T11:52:41;5.18;;;1.60;;
20734;SDS011;10528;52.124;5.196;2022-09-09T11:55:30;4.97;;;1.30;;
20734;SDS011;10528;52.124;5.196;2022-09-09T11:58:01;5.03;;;1.30;;
20734;SDS011;10528;52.124;5.196;2022-09-09T12:03:31;5.68;;;1.52;;
20734;SDS011;10528;52.124;5.196;2022-09-09T12:09:04;5.22;;;2.00;;
20734;SDS011;10528;52.124;5.196;2022-09-09T12:11:35;5.07;;;1.73;;
20734;SDS011;10528;52.124;5.196;2022-09-09T12:14:03;3.90;;;1.38;;
20734;SDS011;10528;52.124;5.196;2022-09-09T12:16:31;6.30;;;2.00;;
20734;SDS011;10528;52.124;5.196;2022-09-09T12:19:06;6.57;;;1.70;;
20734;SDS011;10528;52.124;5.196;2022-09-09T12:22:05;6.32;;;1.80;;
20734;SDS011;10528;52.124;5.196;2022-09-09T12:27:44;4.60;;;1.67;;
20734;SDS011;10528;52.124;5.196;2022-09-09T12:31:16;4.65;;;1.90;;
20734;SDS011;10528;52.124;5.196;2022-09-09T12:33:34;4.28;;;1.55;;
20734;SDS011;10528;52.124;5.196;2022-09-09T12:36:06;7.18;;;1.45;;
20734;SDS011;10528;52.124;5.196;2022-09-09T12:38:42;8.15;;;1.67;;
20734;SDS011;10528;52.124;5.196;2022-09-09T12:41:26;4.90;;;1.65;;
20734;SDS011;10528;52.124;5.196;2022-09-09T12:44:04;3.15;;;1.52;;
20734;SDS011;10528;52.124;5.196;2022-09-09T12:46:36;4.88;;;1.80;;
20734;SDS011;10528;52.124;5.196;2022-09-09T12:49:28;5.10;;;2.00;;
20734;SDS011;10528;52.124;5.196;2022-09-09T12:52:04;6.63;;;1.80;;
20734;SDS011;10528;52.124;5.196;2022-09-09T12:54:42;5.57;;;1.83;;
20734;SDS011;10528;52.124;5.196;2022-09-09T12:57:13;4.70;;;1.98;;
20734;SDS011;10528;52.124;5.196;2022-09-09T12:59:42;4.97;;;1.60;;
20734;SDS011;10528;52.124;5.196;2022-09-09T13:02:21;6.03;;;2.00;;
20734;SDS011;10528;52.124;5.196;2022-09-09T13:04:51;4.55;;;1.80;;
20734;SDS011;10528;52.124;5.196;2022-09-09T13:07:20;3.05;;;1.33;;
20734;SDS011;10528;52.124;5.196;2022-09-09T13:09:48;3.42;;;1.70;;
20734;SDS011;10528;52.124;5.196;2022-09-09T13:12:19;4.20;;;2.22;;
20734;SDS011;10528;52.124;5.196;2022-09-09T13:14:49;5.35;;;1.70;;
20734;SDS011;10528;52.124;5.196;2022-09-09T13:17:23;3.53;;;1.88;;
20734;SDS011;10528;52.124;5.196;2022-09-09T13:19:55;5.80;;;1.48;;
20734;SDS011;10528;52.124;5.196;2022-09-09T13:22:27;5.60;;;1.70;;
20734;SDS011;10528;52.124;5.196;2022-09-09T13:25:05;7.60;;;2.22;;
20734;SDS011;10528;52.124;5.196;2022-09-09T13:27:38;4.72;;;1.60;;
20734;SDS011;10528;52.124;5.196;2022-09-09T13:32:59;3.35;;;1.58;;
20734;SDS011;10528;52.124;5.196;2022-09-09T13:35:51;5.38;;;1.70;;
20734;SDS011;10528;52.124;5.196;2022-09-09T13:38:27;5.55;;;2.17;;
20734;SDS011;10528;52.124;5.196;2022-09-09T13:40:59;4.70;;;1.63;;
20734;SDS011;10528;52.124;5.196;2022-09-09T13:43:38;6.00;;;2.00;;
20734;SDS011;10528;52.124;5.196;2022-09-09T13:49:02;5.45;;;1.80;;
20734;SDS011;10528;52.124;5.196;2022-09-09T13:51:50;6.53;;;2.00;;
20734;SDS011;10528;52.124;5.196;2022-09-09T13:54:19;4.53;;;1.77;;
20734;SDS011;10528;52.124;5.196;2022-09-09T13:56:47;5.28;;;1.70;;
20734;SDS011;10528;52.124;5.196;2022-09-09T13:59:16;9.60;;;1.95;;
20734;SDS011;10528;52.124;5.196;2022-09-09T14:01:46;6.80;;;2.25;;
20734;SDS011;10528;52.124;5.196;2022-09-09T14:04:13;5.20;;;1.83;;
20734;SDS011;10528;52.124;5.196;2022-09-09T14:06:41;6.70;;;1.70;;
20734;SDS011;10528;52.124;5.196;2022-09-09T14:09:10;5.82;;;1.90;;
20734;SDS011;10528;52.124;5.196;2022-09-09T14:11:40;4.10;;;1.55;;
20734;SDS011;10528;52.124;5.196;2022-09-09T14:14:07;5.57;;;1.77;;
20734;SDS011;10528;52.124;5.196;2022-09-09T14:16:34;5.32;;;2.20;;
20734;SDS011;10528;52.124;5.196;2022-09-09T14:19:02;7.28;;;1.92;;
20734;SDS011;10528;52.124;5.196;2022-09-09T14:21:30;5.80;;;2.05;;
20734;SDS011;10528;52.124;5.196;2022-09-09T14:23:56;5.03;;;2.00;;
20734;SDS011;10528;52.124;5.196;2022-09-09T14:26:24;3.90;;;1.80;;
20734;SDS011;10528;52.124;5.196;2022-09-09T14:28:52;8.48;;;2.30;;
20734;SDS011;10528;52.124;5.196;2022-09-09T14:31:21;4.20;;;2.30;;
20734;SDS011;10528;52.124;5.196;2022-09-09T14:33:49;3.65;;;2.05;;
20734;SDS011;10528;52.124;5.196;2022-09-09T14:36:17;5.78;;;2.28;;
20734;SDS011;10528;52.124;5.196;2022-09-09T14:38:44;6.72;;;2.22;;
20734;SDS011;10528;52.124;5.196;2022-09-09T14:41:12;6.70;;;2.70;;
20734;SDS011;10528;52.124;5.196;2022-09-09T14:43:46;5.07;;;1.98;;
20734;SDS011;10528;52.124;5.196;2022-09-09T14:46:14;5.78;;;1.88;;
20734;SDS011;10528;52.124;5.196;2022-09-09T14:48:43;8.23;;;2.25;;
20734;SDS011;10528;52.124;5.196;2022-09-09T14:51:12;5.00;;;2.22;;
20734;SDS011;10528;52.124;5.196;2022-09-09T14:53:42;7.15;;;2.17;;
20734;SDS011;10528;52.124;5.196;2022-09-09T14:56:11;4.65;;;2.10;;
20734;SDS011;10528;52.124;5.196;2022-09-09T14:58:44;5.40;;;2.10;;
20734;SDS011;10528;52.124;5.196;2022-09-09T15:01:13;4.10;;;1.75;;
20734;SDS011;10528;52.124;5.196;2022-09-09T15:03:48;4.95;;;1.90;;
20734;SDS011;10528;52.124;5.196;2022-09-09T15:06:18;2.65;;;1.25;;
20734;SDS011;10528;52.124;5.196;2022-09-09T15:08:47;2.45;;;1.13;;
20734;SDS011;10528;52.124;5.196;2022-09-09T15:11:19;3.42;;;1.17;;
20734;SDS011;10528;52.124;5.196;2022-09-09T15:13:50;3.65;;;1.20;;
20734;SDS011;10528;52.124;5.196;2022-09-09T15:16:22;4.22;;;1.30;;
20734;SDS011;10528;52.124;5.196;2022-09-09T15:18:52;4.20;;;1.30;;
20734;SDS011;10528;52.124;5.196;2022-09-09T15:21:23;1.30;;;0.90;;
20734;SDS011;10528;52.124;5.196;2022-09-09T15:23:54;3.95;;;1.23;;
20734;SDS011;10528;52.124;5.196;2022-09-09T15:26:22;3.10;;;1.45;;
20734;SDS011;10528;52.124;5.196;2022-09-09T15:28:50;3.85;;;1.20;;
20734;SDS011;10528;52.124;5.196;2022-09-09T15:31:18;3.45;;;1.30;;
20734;SDS011;10528;52.124;5.196;2022-09-09T15:33:55;2.92;;;1.23;;
20734;SDS011;10528;52.124;5.196;2022-09-09T15:36:33;3.90;;;1.30;;
20734;SDS011;10528;52.124;5.196;2022-09-09T15:39:13;3.47;;;1.30;;
20734;SDS011;10528;52.124;5.196;2022-09-09T15:41:43;4.25;;;1.33;;
20734;SDS011;10528;52.124;5.196;2022-09-09T15:44:11;2.47;;;1.10;;
20734;SDS011;10528;52.124;5.196;2022-09-09T15:46:39;3.30;;;1.17;;
20734;SDS011;10528;52.124;5.196;2022-09-09T15:49:17;2.17;;;1.00;;
20734;SDS011;10528;52.124;5.196;2022-09-09T15:51:53;4.22;;;1.30;;
20734;SDS011;10528;52.124;5.196;2022-09-09T15:54:24;2.05;;;0.90;;
20734;SDS011;10528;52.124;5.196;2022-09-09T15:56:56;2.13;;;1.00;;
20734;SDS011;10528;52.124;5.196;2022-09-09T15:59:26;3.63;;;1.40;;
20734;SDS011;10528;52.124;5.196;2022-09-09T16:01:55;2.65;;;1.23;;
20734;SDS011;10528;52.124;5.196;2022-09-09T16:04:26;3.50;;;1.23;;
20734;SDS011;10528;52.124;5.196;2022-09-09T16:06:59;3.30;;;1.30;;
20734;SDS011;10528;52.124;5.196;2022-09-09T16:09:31;3.72;;;1.20;;
20734;SDS011;10528;52.124;5.196;2022-09-09T16:12:00;3.38;;;1.33;;
20734;SDS011;10528;52.124;5.196;2022-09-09T16:14:32;2.92;;;0.95;;
20734;SDS011;10528;52.124;5.196;2022-09-09T16:17:02;4.68;;;1.20;;
20734;SDS011;10528;52.124;5.196;2022-09-09T16:19:30;3.25;;;1.20;;
20734;SDS011;10528;52.124;5.196;2022-09-09T16:21:57;4.55;;;1.20;;
20734;SDS011;10528;52.124;5.196;2022-09-09T16:24:24;2.90;;;1.20;;
20734;SDS011;10528;52.124;5.196;2022-09-09T16:26:53;2.50;;;1.13;;
20734;SDS011;10528;52.124;5.196;2022-09-09T16:29:21;5.15;;;1.15;;
20734;SDS011;10528;52.124;5.196;2022-09-09T16:31:49;2.92;;;1.20;;
20734;SDS011;10528;52.124;5.196;2022-09-09T16:34:17;4.78;;;1.30;;
20734;SDS011;10528;52.124;5.196;2022-09-09T16:36:45;4.70;;;1.40;;
20734;SDS011;10528;52.124;5.196;2022-09-09T16:39:15;5.70;;;1.52;;
20734;SDS011;10528;52.124;5.196;2022-09-09T16:41:45;4.10;;;1.88;;
20734;SDS011;10528;52.124;5.196;2022-09-09T16:44:16;4.35;;;1.50;;
20734;SDS011;10528;52.124;5.196;2022-09-09T16:46:46;5.93;;;1.88;;
20734;SDS011;10528;52.124;5.196;2022-09-09T16:49:25;4.32;;;1.55;;
20734;SDS011;10528;52.124;5.196;2022-09-09T16:51:53;4.55;;;1.75;;
20734;SDS011;10528;52.124;5.196;2022-09-09T16:54:23;5.93;;;1.85;;
20734;SDS011;10528;52.124;5.196;2022-09-09T16:56:53;4.03;;;1.83;;
20734;SDS011;10528;52.124;5.196;2022-09-09T16:59:21;4.50;;;2.03;;
20734;SDS011;10528;52.124;5.196;2022-09-09T17:01:50;7.13;;;2.30;;
20734;SDS011;10528;52.124;5.196;2022-09-09T17:04:19;4.65;;;2.10;;
20734;SDS011;10528;52.124;5.196;2022-09-09T17:06:52;4.93;;;2.10;;
20734;SDS011;10528;52.124;5.196;2022-09-09T17:09:21;5.88;;;2.08;;
20734;SDS011;10528;52.124;5.196;2022-09-09T17:11:49;4.63;;;2.33;;
20734;SDS011;10528;52.124;5.196;2022-09-09T17:14:18;5.13;;;2.42;;
20734;SDS011;10528;52.124;5.196;2022-09-09T17:16:47;4.13;;;2.47;;
20734;SDS011;10528;52.124;5.196;2022-09-09T17:19:15;5.75;;;2.10;;
20734;SDS011;10528;52.124;5.196;2022-09-09T17:21:42;4.15;;;2.28;;
20734;SDS011;10528;52.124;5.196;2022-09-09T17:24:29;4.28;;;1.92;;
20734;SDS011;10528;52.124;5.196;2022-09-09T17:26:56;4.75;;;1.85;;
20734;SDS011;10528;52.124;5.196;2022-09-09T17:29:24;6.05;;;2.00;;
20734;SDS011;10528;52.124;5.196;2022-09-09T17:31:51;3.95;;;2.05;;